createdAt,value
2018-03-15T00:01:44.096Z,84.00
2018-03-15T00:04:11.782Z,84.00
2018-03-15T00:06:39.504Z,84.00
2018-03-15T00:09:07.631Z,84.00
2018-03-15T00:11:36.132Z,83.80
2018-03-15T00:14:04.552Z,83.70
2018-03-15T00:16:32.080Z,83.70
2018-03-15T00:19:00.360Z,83.80
2018-03-15T00:21:27.882Z,83.60
2018-03-15T00:23:55.524Z,83.60
2018-03-15T00:26:23.090Z,84.40
2018-03-15T00:28:50.599Z,83.70
2018-03-15T00:31:18.890Z,84.00
2018-03-15T00:33:46.407Z,83.90
2018-03-15T00:36:13.937Z,84.10
2018-03-15T00:38:41.731Z,84.30
2018-03-15T00:41:09.235Z,84.70
2018-03-15T00:43:36.758Z,84.90
2018-03-15T00:46:04.267Z,84.70
2018-03-15T00:48:31.787Z,85.00
2018-03-15T00:50:59.293Z,85.10
2018-03-15T00:53:26.838Z,85.30
2018-03-15T00:55:54.346Z,85.60
2018-03-15T00:58:21.911Z,85.90
2018-03-15T01:00:49.562Z,86.00
2018-03-15T01:03:17.089Z,86.30
2018-03-15T01:05:44.706Z,86.30
2018-03-15T01:08:13.018Z,86.40
2018-03-15T01:10:41.283Z,86.40
2018-03-15T01:13:09.576Z,86.60
2018-03-15T01:15:37.175Z,86.60
2018-03-15T01:18:04.741Z,86.90
2018-03-15T01:20:32.315Z,87.40
2018-03-15T01:22:59.904Z,87.90
2018-03-15T01:25:28.174Z,88.10
2018-03-15T01:27:56.462Z,88.30
2018-03-15T01:30:24.778Z,88.50
2018-03-15T01:32:52.313Z,88.50
2018-03-15T01:35:20.079Z,88.80
2018-03-15T01:37:47.602Z,89.10
2018-03-15T01:40:15.116Z,89.10
2018-03-15T01:42:42.630Z,89.40
2018-03-15T01:45:10.160Z,89.60
2018-03-15T01:47:37.818Z,89.80
2018-03-15T01:50:05.344Z,89.90
2018-03-15T01:52:34.835Z,90.00
2018-03-15T01:55:03.160Z,90.40
2018-03-15T01:57:30.711Z,90.40
2018-03-15T02:02:52.107Z,90.60
2018-03-15T02:05:20.458Z,90.60
2018-03-15T02:07:47.971Z,90.50
2018-03-15T02:10:15.503Z,90.60
2018-03-15T02:12:43.867Z,90.60
2018-03-15T02:15:12.007Z,90.60
2018-03-15T02:17:39.507Z,90.60
2018-03-15T02:20:08.811Z,90.80
2018-03-15T02:22:37.118Z,91.00
2018-03-15T02:25:04.951Z,90.90
2018-03-15T02:27:32.628Z,91.10
2018-03-15T02:30:00.146Z,91.10
2018-03-15T02:32:27.647Z,91.10
2018-03-15T02:34:56.057Z,91.40
2018-03-15T02:37:23.567Z,91.30
2018-03-15T02:39:51.126Z,91.40
2018-03-15T02:42:18.659Z,91.60
2018-03-15T02:44:46.184Z,91.60
2018-03-15T02:47:13.772Z,91.50
2018-03-15T02:49:41.558Z,91.50
2018-03-15T02:52:09.066Z,91.40
2018-03-15T02:54:37.352Z,91.50
2018-03-15T02:57:04.867Z,91.50
2018-03-15T02:59:32.414Z,91.60
2018-03-15T03:01:59.926Z,91.60
2018-03-15T03:04:27.489Z,91.60
2018-03-15T03:06:55.935Z,91.70
2018-03-15T03:09:23.476Z,91.70
2018-03-15T03:11:50.977Z,91.70
2018-03-15T03:14:19.249Z,92.20
2018-03-15T03:16:47.603Z,92.40
2018-03-15T03:19:15.295Z,92.40
2018-03-15T03:21:43.593Z,92.60
2018-03-15T03:24:11.100Z,92.50
2018-03-15T03:26:38.639Z,92.80
2018-03-15T03:29:06.149Z,93.00
2018-03-15T03:31:34.461Z,93.00
2018-03-15T03:34:02.086Z,93.00
2018-03-15T03:36:30.812Z,93.50
2018-03-15T03:38:58.543Z,93.40
2018-03-15T03:41:26.834Z,93.50
2018-03-15T03:43:55.104Z,93.40
2018-03-15T03:46:23.464Z,93.40
2018-03-15T03:48:50.943Z,93.30
2018-03-15T03:51:19.239Z,93.70
2018-03-15T03:53:46.774Z,93.60
2018-03-15T03:56:14.315Z,94.00
2018-03-15T03:58:41.819Z,94.70
2018-03-15T04:01:09.378Z,94.60
2018-03-15T04:03:36.882Z,94.50
2018-03-15T04:06:04.655Z,94.40
2018-03-15T04:08:32.393Z,94.30
2018-03-15T04:10:59.892Z,94.20
2018-03-15T04:13:27.398Z,94.30
2018-03-15T04:15:54.926Z,94.20
2018-03-15T04:18:23.250Z,94.10
2018-03-15T04:20:50.750Z,94.10
2018-03-15T04:23:18.309Z,93.90
2018-03-15T04:25:46.587Z,94.20
2018-03-15T04:28:14.129Z,93.90
2018-03-15T04:30:41.770Z,93.80
2018-03-15T04:33:09.338Z,93.80
2018-03-15T04:35:36.886Z,93.80
2018-03-15T04:38:05.166Z,93.70
2018-03-15T04:40:32.722Z,93.70
2018-03-15T04:43:00.277Z,93.90
2018-03-15T04:45:27.831Z,93.90
2018-03-15T04:47:55.403Z,93.90
2018-03-15T04:50:22.947Z,94.20
2018-03-15T04:52:50.466Z,94.60
2018-03-15T04:55:17.972Z,94.90
2018-03-15T04:57:45.493Z,95.10
2018-03-15T05:00:13.830Z,95.20
2018-03-15T05:02:41.402Z,95.10
2018-03-15T05:05:08.911Z,95.00
2018-03-15T05:07:36.443Z,95.20
2018-03-15T05:10:03.975Z,95.20
2018-03-15T05:12:31.538Z,95.30
2018-03-15T05:14:59.086Z,95.30
2018-03-15T05:17:26.727Z,95.40
2018-03-15T05:19:54.231Z,95.40
2018-03-15T05:22:21.730Z,95.30
2018-03-15T05:24:50.154Z,95.10
2018-03-15T05:27:17.657Z,95.00
2018-03-15T05:29:45.182Z,95.00
2018-03-15T05:32:12.720Z,95.10
2018-03-15T05:34:40.238Z,95.00
2018-03-15T05:37:07.783Z,95.20
2018-03-15T05:39:35.498Z,95.30
2018-03-15T05:42:03.008Z,95.40
2018-03-15T05:44:30.528Z,95.40
2018-03-15T05:46:58.039Z,95.50
2018-03-15T05:49:26.338Z,95.50
2018-03-15T05:51:54.613Z,95.50
2018-03-15T05:54:22.906Z,95.40
2018-03-15T05:56:50.429Z,95.40
2018-03-15T05:59:17.947Z,95.30
2018-03-15T06:01:46.451Z,95.30
2018-03-15T06:04:13.970Z,95.20
2018-03-15T06:06:41.540Z,95.20
2018-03-15T06:09:09.162Z,95.20
2018-03-15T06:11:38.190Z,95.00
2018-03-15T06:14:05.702Z,95.00
2018-03-15T06:16:33.214Z,95.00
2018-03-15T06:19:00.731Z,94.80
2018-03-15T06:21:28.226Z,94.80
2018-03-15T06:23:55.807Z,94.70
2018-03-15T06:26:23.310Z,94.60
2018-03-15T06:28:50.850Z,94.70
2018-03-15T06:31:18.351Z,94.80
2018-03-15T06:33:46.643Z,94.60
2018-03-15T06:36:14.932Z,94.80
2018-03-15T06:38:42.455Z,94.50
2018-03-15T06:41:10.751Z,94.40
2018-03-15T06:43:39.020Z,94.40
2018-03-15T06:46:07.310Z,94.40
2018-03-15T06:48:35.583Z,94.20
2018-03-15T06:51:03.874Z,94.00
2018-03-15T06:53:31.488Z,94.00
2018-03-15T06:55:59.014Z,93.90
2018-03-15T06:58:26.540Z,93.80
2018-03-15T07:00:54.826Z,93.60
2018-03-15T07:03:22.339Z,93.60
2018-03-15T07:05:49.866Z,93.40
2018-03-15T07:08:17.371Z,93.40
2018-03-15T07:10:44.906Z,93.20
2018-03-15T07:13:12.410Z,93.20
2018-03-15T07:15:39.935Z,93.20
2018-03-15T07:18:07.449Z,93.20
2018-03-15T07:20:34.979Z,93.10
2018-03-15T07:23:02.500Z,93.00
2018-03-15T07:25:30.018Z,92.90
2018-03-15T07:27:57.574Z,92.50
2018-03-15T07:30:25.139Z,92.10
2018-03-15T07:32:52.659Z,91.60
2018-03-15T07:35:20.963Z,91.30
2018-03-15T07:37:48.487Z,91.30
2018-03-15T07:40:16.794Z,91.00
2018-03-15T07:42:44.312Z,91.00
2018-03-15T07:45:11.874Z,91.00
2018-03-15T07:47:39.388Z,91.00
2018-03-15T07:50:06.960Z,91.20
2018-03-15T07:52:34.500Z,91.30
2018-03-15T07:55:02.023Z,91.30
2018-03-15T07:57:30.328Z,91.60
2018-03-15T07:59:57.847Z,91.60
2018-03-15T08:02:26.174Z,91.60
2018-03-15T08:04:53.690Z,91.50
2018-03-15T08:07:22.002Z,91.70
2018-03-15T08:09:56.669Z,91.70
2018-03-15T08:12:25.049Z,91.70
2018-03-15T08:14:52.577Z,91.70
2018-03-15T08:17:20.103Z,91.80
2018-03-15T08:19:48.391Z,91.50
2018-03-15T08:22:16.703Z,91.50
2018-03-15T08:24:44.224Z,91.50
2018-03-15T08:27:12.520Z,91.00
2018-03-15T08:29:40.030Z,91.00
2018-03-15T08:32:07.572Z,91.00
2018-03-15T08:34:35.861Z,90.80
2018-03-15T08:37:03.386Z,90.70
2018-03-15T08:39:30.898Z,90.30
2018-03-15T08:41:58.433Z,90.30
2018-03-15T08:44:25.951Z,90.10
2018-03-15T08:46:53.486Z,88.90
2018-03-15T08:49:21.778Z,87.30
2018-03-15T08:51:50.073Z,87.10
2018-03-15T08:54:17.596Z,87.00
2018-03-15T08:56:45.138Z,85.60
2018-03-15T08:59:12.650Z,85.70
2018-03-15T09:01:40.930Z,85.60
2018-03-15T09:04:09.204Z,85.00
2018-03-15T09:06:36.734Z,84.90
2018-03-15T09:09:04.249Z,85.60
2018-03-15T09:11:31.772Z,84.70
2018-03-15T09:14:00.038Z,82.20
2018-03-15T09:16:28.325Z,81.60
2018-03-15T09:18:56.633Z,82.10
2018-03-15T09:21:24.143Z,82.00
2018-03-15T09:23:51.666Z,81.10
2018-03-15T09:26:19.164Z,81.10
2018-03-15T09:28:46.695Z,80.00
2018-03-15T09:31:14.202Z,80.20
2018-03-15T09:33:41.741Z,80.30
2018-03-15T09:36:09.255Z,77.60
2018-03-15T09:38:36.799Z,77.00
2018-03-15T09:41:04.314Z,76.90
2018-03-15T09:43:31.855Z,77.10
2018-03-15T09:45:59.372Z,77.00
2018-03-15T09:48:26.912Z,75.80
2018-03-15T09:50:55.208Z,74.70
2018-03-15T09:53:23.490Z,76.80
2018-03-15T09:55:51.011Z,76.60
2018-03-15T09:58:18.550Z,73.80
2018-03-15T10:00:46.069Z,74.90
2018-03-15T10:03:13.607Z,74.40
2018-03-15T10:05:41.936Z,74.50
2018-03-15T10:08:09.438Z,75.40
2018-03-15T10:10:37.739Z,73.70
2018-03-15T10:13:05.270Z,73.50
2018-03-15T10:15:32.792Z,73.80
2018-03-15T10:18:00.319Z,73.70
2018-03-15T10:20:28.598Z,72.00
2018-03-15T10:22:56.149Z,72.00
2018-03-15T10:25:26.394Z,71.20
2018-03-15T10:27:51.968Z,71.10
2018-03-15T10:30:19.503Z,70.50
2018-03-15T10:33:01.914Z,71.40
2018-03-15T10:35:29.458Z,69.40
2018-03-15T10:37:56.987Z,69.40
2018-03-15T10:40:24.538Z,69.70
2018-03-15T10:42:52.083Z,69.80
2018-03-15T10:45:19.615Z,70.50
2018-03-15T10:47:47.143Z,70.10
2018-03-15T10:50:14.690Z,69.70
2018-03-15T10:52:42.219Z,68.60
2018-03-15T10:55:09.755Z,68.90
2018-03-15T10:57:37.283Z,69.20
2018-03-15T11:00:04.838Z,67.50
2018-03-15T11:02:37.927Z,67.20
2018-03-15T11:05:05.482Z,66.40
2018-03-15T11:07:38.724Z,68.30
2018-03-15T11:10:15.763Z,66.30
2018-03-15T11:12:43.281Z,66.20
2018-03-15T11:15:10.826Z,65.30
2018-03-15T11:17:38.355Z,66.10
2018-03-15T11:20:05.913Z,64.90
2018-03-15T11:22:33.425Z,64.30
2018-03-15T11:25:00.963Z,64.60
2018-03-15T11:27:29.210Z,66.00
2018-03-15T11:29:56.738Z,66.40
2018-03-15T11:32:25.026Z,62.90
2018-03-15T11:34:52.562Z,62.90
2018-03-15T11:37:20.082Z,61.70
2018-03-15T11:39:47.633Z,62.00
2018-03-15T11:42:15.151Z,62.30
2018-03-15T11:44:43.436Z,61.80
2018-03-15T11:47:11.742Z,60.90
2018-03-15T11:49:39.275Z,60.70
2018-03-15T11:52:07.584Z,58.90
2018-03-15T11:54:35.108Z,58.80
2018-03-15T11:57:03.415Z,59.50
2018-03-15T11:59:30.932Z,59.40
2018-03-15T12:01:58.471Z,59.60
2018-03-15T12:04:26.007Z,60.00
2018-03-15T12:06:55.367Z,59.20
2018-03-15T12:09:23.675Z,58.80
2018-03-15T12:11:51.239Z,58.80
2018-03-15T12:14:18.783Z,59.40
2018-03-15T12:16:47.091Z,58.70
2018-03-15T12:19:14.595Z,58.60
2018-03-15T12:21:42.122Z,58.70
2018-03-15T12:24:09.643Z,58.80
2018-03-15T12:26:37.950Z,58.90
2018-03-15T12:29:05.490Z,58.80
2018-03-15T12:31:33.025Z,58.50
2018-03-15T12:34:00.587Z,57.60
2018-03-15T12:36:28.125Z,57.40
2018-03-15T12:38:55.627Z,58.10
2018-03-15T12:41:24.187Z,57.60
2018-03-15T12:43:51.711Z,57.50
2018-03-15T12:46:19.234Z,57.20
2018-03-15T12:48:46.743Z,57.40
2018-03-15T12:51:14.299Z,58.00
2018-03-15T12:53:41.843Z,58.30
2018-03-15T12:56:09.352Z,57.50
2018-03-15T12:58:36.935Z,58.20
2018-03-15T13:01:04.463Z,57.50
2018-03-15T13:03:32.102Z,58.10
2018-03-15T13:05:59.643Z,57.60
2018-03-15T13:08:27.183Z,57.50
2018-03-15T13:10:56.351Z,58.10
2018-03-15T13:13:24.654Z,58.00
2018-03-15T13:15:52.939Z,57.50
2018-03-15T13:18:20.495Z,57.40
2018-03-15T13:20:48.043Z,56.90
2018-03-15T13:23:16.362Z,56.90
2018-03-15T13:25:43.904Z,56.80
2018-03-15T13:28:11.680Z,56.80
2018-03-15T13:30:39.223Z,57.40
2018-03-15T13:33:07.507Z,57.60
2018-03-15T13:35:35.055Z,57.50
2018-03-15T13:38:03.352Z,57.50
2018-03-15T13:40:30.876Z,57.50
2018-03-15T13:42:59.175Z,58.30
2018-03-15T13:45:27.447Z,58.40
2018-03-15T13:47:55.004Z,58.30
2018-03-15T13:50:23.277Z,58.30
2018-03-15T13:52:51.566Z,58.90
2018-03-15T13:55:19.839Z,58.70
2018-03-15T13:57:48.150Z,58.50
2018-03-15T14:00:15.666Z,58.50
2018-03-15T14:02:43.191Z,58.50
2018-03-15T14:05:10.831Z,59.20
2018-03-15T14:07:38.365Z,58.90
2018-03-15T14:10:05.911Z,59.00
2018-03-15T14:12:34.213Z,59.40
2018-03-15T14:15:01.764Z,59.40
2018-03-15T14:17:30.065Z,59.90
2018-03-15T14:19:57.654Z,59.80
2018-03-15T14:22:25.198Z,59.50
2018-03-15T14:24:52.772Z,59.80
2018-03-15T14:27:20.321Z,59.90
2018-03-15T14:29:47.883Z,59.80
2018-03-15T14:32:15.465Z,59.40
2018-03-15T14:34:42.967Z,59.10
2018-03-15T14:37:10.499Z,58.70
2018-03-15T14:39:38.030Z,59.00
2018-03-15T14:42:05.547Z,59.60
2018-03-15T14:44:33.079Z,60.50
2018-03-15T14:47:01.374Z,60.70
2018-03-15T14:49:29.672Z,61.10
2018-03-15T14:51:57.979Z,61.30
2018-03-15T14:54:25.516Z,61.30
2018-03-15T14:56:53.034Z,62.90
2018-03-15T14:59:20.559Z,63.30
2018-03-15T15:01:48.090Z,62.20
2018-03-15T15:04:15.622Z,62.40
2018-03-15T15:06:43.147Z,62.20
2018-03-15T15:09:10.658Z,62.60
2018-03-15T15:11:38.963Z,63.10
2018-03-15T15:14:06.489Z,63.10
2018-03-15T15:16:34.859Z,61.90
2018-03-15T15:19:02.383Z,61.80
2018-03-15T15:21:30.522Z,63.20
2018-03-15T15:23:58.048Z,63.40
2018-03-15T15:26:25.587Z,64.20
2018-03-15T15:28:53.143Z,64.40
2018-03-15T15:31:20.697Z,64.80
2018-03-15T15:33:48.202Z,67.60
2018-03-15T15:36:16.490Z,68.60
2018-03-15T15:38:44.776Z,69.50
2018-03-15T15:41:12.298Z,69.40
2018-03-15T15:43:39.798Z,69.10
2018-03-15T15:46:07.318Z,68.80
2018-03-15T15:48:34.838Z,69.20
2018-03-15T15:51:02.362Z,68.80
2018-03-15T15:53:29.884Z,68.80
2018-03-15T15:55:57.445Z,69.80
2018-03-15T15:58:24.953Z,69.70
2018-03-15T16:00:53.262Z,68.60
2018-03-15T16:03:20.823Z,68.50
2018-03-15T16:05:48.379Z,70.00
2018-03-15T16:08:15.924Z,70.30
2018-03-15T16:10:43.470Z,70.10
2018-03-15T16:13:11.781Z,68.60
2018-03-15T16:15:39.385Z,68.50
2018-03-15T16:18:06.904Z,69.20
2018-03-15T16:20:34.468Z,69.10
2018-03-15T16:23:02.003Z,67.90
2018-03-15T16:25:29.509Z,67.80
2018-03-15T16:27:57.088Z,67.60
2018-03-15T16:30:24.671Z,67.50
2018-03-15T16:32:52.223Z,67.20
2018-03-15T16:35:19.779Z,67.40
2018-03-15T16:37:48.111Z,67.50
2018-03-15T16:40:15.666Z,67.30
2018-03-15T16:42:43.250Z,67.10
2018-03-15T16:45:10.806Z,66.90
2018-03-15T16:47:38.367Z,67.50
2018-03-15T16:50:05.948Z,67.90
2018-03-15T16:52:35.072Z,72.20
2018-03-15T16:55:02.659Z,72.20
2018-03-15T16:57:30.202Z,69.30
2018-03-15T16:59:57.800Z,67.20
2018-03-15T17:02:28.504Z,67.10
2018-03-15T17:04:56.127Z,67.70
2018-03-15T17:07:23.704Z,68.00
2018-03-15T17:09:51.259Z,68.20
2018-03-15T17:12:19.621Z,67.90
2018-03-15T17:14:47.988Z,68.50
2018-03-15T17:17:15.573Z,67.90
2018-03-15T17:19:43.888Z,68.70
2018-03-15T17:22:11.440Z,68.60
2018-03-15T17:24:39.785Z,70.00
2018-03-15T17:27:07.369Z,70.00
2018-03-15T17:29:34.939Z,70.50
2018-03-15T17:32:03.260Z,72.00
2018-03-15T17:34:30.840Z,71.90
2018-03-15T17:36:58.439Z,73.00
2018-03-15T17:39:26.078Z,73.80
2018-03-15T17:41:53.657Z,73.30
2018-03-15T17:44:21.267Z,72.80
2018-03-15T17:46:48.842Z,74.10
2018-03-15T17:49:17.198Z,70.50
2018-03-15T17:51:44.760Z,70.50
2018-03-15T17:54:12.346Z,70.00
2018-03-15T17:56:40.648Z,70.80
2018-03-15T17:59:09.335Z,70.70
2018-03-15T18:01:36.883Z,70.70
2018-03-15T18:04:05.321Z,70.70
2018-03-15T18:06:32.905Z,70.70
2018-03-15T18:09:00.500Z,70.50
2018-03-15T18:11:28.063Z,70.10
2018-03-15T18:13:55.672Z,70.00
2018-03-15T18:16:24.142Z,69.50
2018-03-15T18:18:51.674Z,69.50
2018-03-15T18:21:19.947Z,70.30
2018-03-15T18:23:48.237Z,71.00
2018-03-15T18:26:17.370Z,71.00
2018-03-15T18:28:44.895Z,71.00
2018-03-15T18:31:12.435Z,70.80
2018-03-15T18:33:40.983Z,71.60
2018-03-15T18:36:09.082Z,71.60
2018-03-15T18:38:38.122Z,70.50
2018-03-15T18:41:05.650Z,70.50
2018-03-15T18:43:33.954Z,71.10
2018-03-15T18:46:01.490Z,71.00
2018-03-15T18:48:29.766Z,71.50
2018-03-15T18:51:00.043Z,71.90
2018-03-15T18:53:27.546Z,71.80
2018-03-15T18:55:55.886Z,72.80
2018-03-15T18:58:23.383Z,72.80
2018-03-15T19:00:51.674Z,73.90
2018-03-15T19:03:19.942Z,74.00
2018-03-15T19:05:48.231Z,74.30
2018-03-15T19:08:16.500Z,73.70
2018-03-15T19:10:44.790Z,73.50
2018-03-15T19:13:13.077Z,73.30
2018-03-15T19:15:40.608Z,73.20
2018-03-15T19:18:08.898Z,74.10
2018-03-15T19:20:37.191Z,73.30
2018-03-15T19:23:04.702Z,73.20
2018-03-15T19:25:32.240Z,74.10
2018-03-15T19:27:59.746Z,73.50
2018-03-15T19:30:28.047Z,73.60
2018-03-15T19:32:55.554Z,73.50
2018-03-15T19:35:23.083Z,73.70
2018-03-15T19:37:50.630Z,73.70
2018-03-15T19:40:18.888Z,73.60
2018-03-15T19:42:46.406Z,73.60
2018-03-15T19:45:13.921Z,73.70
2018-03-15T19:47:41.427Z,73.70
2018-03-15T19:50:08.946Z,74.00
2018-03-15T19:52:36.457Z,74.30
2018-03-15T19:55:03.979Z,74.30
2018-03-15T19:57:31.500Z,74.40
2018-03-15T20:00:00.780Z,74.80
2018-03-15T20:02:29.111Z,75.20
2018-03-15T20:04:56.622Z,75.20
2018-03-15T20:07:24.157Z,75.50
2018-03-15T20:09:51.667Z,75.90
2018-03-15T20:12:19.973Z,76.60
2018-03-15T20:14:47.484Z,76.50
2018-03-15T20:17:15.019Z,76.80
2018-03-15T20:19:42.531Z,77.10
2018-03-15T20:22:10.979Z,77.10
2018-03-15T20:24:38.551Z,77.00
2018-03-15T20:27:06.082Z,77.60
2018-03-15T20:29:33.583Z,77.70
2018-03-15T20:32:01.867Z,78.60
2018-03-15T20:34:29.404Z,78.60
2018-03-15T20:36:56.923Z,79.10
2018-03-15T20:39:30.053Z,79.40
2018-03-15T20:41:57.652Z,79.80
2018-03-15T20:44:25.155Z,80.20
2018-03-15T20:46:58.325Z,80.80
2018-03-15T20:49:26.566Z,80.80
2018-03-15T20:51:54.850Z,81.00
2018-03-15T20:54:22.374Z,81.00
2018-03-15T20:56:49.891Z,81.70
2018-03-15T20:59:17.385Z,80.90
2018-03-15T21:01:44.902Z,80.80
2018-03-15T21:04:12.590Z,81.10
2018-03-15T21:06:40.118Z,81.30
2018-03-15T21:09:08.382Z,81.90
2018-03-15T21:11:36.666Z,81.70
2018-03-15T21:14:04.938Z,82.40
2018-03-15T21:16:33.239Z,82.30
2018-03-15T21:19:00.790Z,82.20
2018-03-15T21:21:29.083Z,82.20
2018-03-15T21:23:56.589Z,82.20
2018-03-15T21:26:24.110Z,82.30
2018-03-15T21:28:51.689Z,81.90
2018-03-15T21:31:19.224Z,81.30
2018-03-15T21:33:46.721Z,81.40
2018-03-15T21:36:14.268Z,81.70
2018-03-15T21:38:41.758Z,81.80
2018-03-15T21:41:09.266Z,81.30
2018-03-15T21:43:36.789Z,81.40
2018-03-15T21:46:04.312Z,81.50
2018-03-15T21:48:31.836Z,80.90
2018-03-15T21:50:59.335Z,81.00
2018-03-15T21:53:26.859Z,81.10
2018-03-15T21:55:54.370Z,81.30
2018-03-15T21:58:22.674Z,81.30
2018-03-15T22:00:50.950Z,81.40
2018-03-15T22:03:19.577Z,81.40
2018-03-15T22:05:47.112Z,81.40
2018-03-15T22:08:14.797Z,81.50
2018-03-15T22:10:42.353Z,81.60
2018-03-15T22:13:09.925Z,81.50
2018-03-15T22:15:37.477Z,81.20
2018-03-15T22:18:05.029Z,81.00
2018-03-15T22:20:32.569Z,80.90
2018-03-15T22:23:00.896Z,81.40
2018-03-15T22:25:28.440Z,81.30
2018-03-15T22:27:56.768Z,82.00
2018-03-15T22:30:25.106Z,82.40
2018-03-15T22:32:52.646Z,82.10
2018-03-15T22:35:20.240Z,82.40
2018-03-15T22:37:48.697Z,82.60
2018-03-15T22:40:16.260Z,83.00
2018-03-15T22:42:43.888Z,83.70
2018-03-15T22:45:12.250Z,84.20
2018-03-15T22:47:39.792Z,84.20
2018-03-15T22:50:07.396Z,84.50
2018-03-15T22:52:34.941Z,85.00
2018-03-15T22:55:03.345Z,85.30
2018-03-15T22:57:31.676Z,85.20
2018-03-15T22:59:59.224Z,85.10
2018-03-15T23:02:26.795Z,85.50
2018-03-15T23:04:54.389Z,86.20
2018-03-15T23:07:21.976Z,86.20
2018-03-15T23:09:49.543Z,86.30
2018-03-15T23:12:17.084Z,86.60
2018-03-15T23:14:44.690Z,86.70
2018-03-15T23:17:12.250Z,86.80
2018-03-15T23:19:39.810Z,86.90
2018-03-15T23:22:07.351Z,87.00
2018-03-15T23:24:34.920Z,87.10
2018-03-15T23:27:02.467Z,87.10
2018-03-15T23:29:30.056Z,87.10
2018-03-15T23:31:57.600Z,87.40
2018-03-15T23:34:25.168Z,87.10
2018-03-15T23:36:52.703Z,87.10
2018-03-15T23:39:20.249Z,86.90
2018-03-15T23:41:47.801Z,86.90
2018-03-15T23:44:16.113Z,86.70
2018-03-15T23:46:43.675Z,86.60
2018-03-15T23:49:11.216Z,86.60
2018-03-15T23:51:38.778Z,86.50
2018-03-15T23:54:06.320Z,86.40
2018-03-15T23:56:33.870Z,86.30
2018-03-15T23:59:02.192Z,86.30
